sensor_id;sensor_type;location;lat;lon;timestamp;P1;durP1;ratioP1;P2;durP2;ratioP2
71626;SDS011;59475;52.464;13.590;2022-07-25T00:00:34;2.97;;;2.60;;
71626;SDS011;59475;52.464;13.590;2022-07-25T00:03:00;3.03;;;2.20;;
71626;SDS011;59475;52.464;13.590;2022-07-25T00:05:25;3.25;;;2.20;;
71626;SDS011;59475;52.464;13.590;2022-07-25T00:07:51;3.33;;;1.90;;
71626;SDS011;59475;52.464;13.590;2022-07-25T00:10:16;5.63;;;2.40;;
71626;SDS011;59475;52.464;13.590;2022-07-25T00:12:41;2.80;;;2.13;;
71626;SDS011;59475;52.464;13.590;2022-07-25T00:15:07;6.57;;;2.90;;
71626;SDS011;59475;52.464;13.590;2022-07-25T00:17:33;2.63;;;1.83;;
71626;SDS011;59475;52.464;13.590;2022-07-25T00:19:59;3.30;;;2.00;;
71626;SDS011;59475;52.464;13.590;2022-07-25T00:22:24;2.27;;;1.93;;
71626;SDS011;59475;52.464;13.590;2022-07-25T00:24:49;3.50;;;2.20;;
71626;SDS011;59475;52.464;13.590;2022-07-25T00:27:15;3.13;;;2.00;;
71626;SDS011;59475;52.464;13.590;2022-07-25T00:29:40;2.20;;;1.93;;
71626;SDS011;59475;52.464;13.590;2022-07-25T00:32:05;2.60;;;2.20;;
71626;SDS011;59475;52.464;13.590;2022-07-25T00:34:31;2.40;;;2.20;;
71626;SDS011;59475;52.464;13.590;2022-07-25T00:36:56;2.90;;;2.33;;
71626;SDS011;59475;52.464;13.590;2022-07-25T00:39:21;2.53;;;1.80;;
71626;SDS011;59475;52.464;13.590;2022-07-25T00:41:47;2.90;;;2.10;;
71626;SDS011;59475;52.464;13.590;2022-07-25T00:44:25;2.53;;;2.13;;
71626;SDS011;59475;52.464;13.590;2022-07-25T00:46:52;6.22;;;2.45;;
71626;SDS011;59475;52.464;13.590;2022-07-25T00:49:18;3.05;;;2.50;;
71626;SDS011;59475;52.464;13.590;2022-07-25T00:51:43;3.47;;;2.30;;
71626;SDS011;59475;52.464;13.590;2022-07-25T00:54:09;4.47;;;2.40;;
71626;SDS011;59475;52.464;13.590;2022-07-25T00:56:35;3.30;;;2.27;;
71626;SDS011;59475;52.464;13.590;2022-07-25T00:59:01;2.42;;;2.22;;
71626;SDS011;59475;52.464;13.590;2022-07-25T01:01:27;2.80;;;2.00;;
71626;SDS011;59475;52.464;13.590;2022-07-25T01:03:52;3.37;;;2.07;;
71626;SDS011;59475;52.464;13.590;2022-07-25T01:06:17;2.67;;;2.47;;
71626;SDS011;59475;52.464;13.590;2022-07-25T01:08:44;3.73;;;2.10;;
71626;SDS011;59475;52.464;13.590;2022-07-25T01:11:10;3.75;;;2.10;;
71626;SDS011;59475;52.464;13.590;2022-07-25T01:13:36;3.65;;;2.15;;
71626;SDS011;59475;52.464;13.590;2022-07-25T01:16:01;2.33;;;2.13;;
71626;SDS011;59475;52.464;13.590;2022-07-25T01:18:27;2.53;;;2.17;;
71626;SDS011;59475;52.464;13.590;2022-07-25T01:20:52;3.97;;;2.70;;
71626;SDS011;59475;52.464;13.590;2022-07-25T01:23:17;2.97;;;2.20;;
71626;SDS011;59475;52.464;13.590;2022-07-25T01:25:43;3.37;;;2.53;;
71626;SDS011;59475;52.464;13.590;2022-07-25T01:28:08;4.63;;;2.47;;
71626;SDS011;59475;52.464;13.590;2022-07-25T01:30:33;2.73;;;2.20;;
71626;SDS011;59475;52.464;13.590;2022-07-25T01:32:59;2.50;;;2.07;;
71626;SDS011;59475;52.464;13.590;2022-07-25T01:35:24;2.73;;;2.20;;
71626;SDS011;59475;52.464;13.590;2022-07-25T01:37:49;2.88;;;2.40;;
71626;SDS011;59475;52.464;13.590;2022-07-25T01:40:15;2.33;;;2.13;;
71626;SDS011;59475;52.464;13.590;2022-07-25T01:42:41;3.03;;;2.37;;
71626;SDS011;59475;52.464;13.590;2022-07-25T01:45:07;3.42;;;2.25;;
71626;SDS011;59475;52.464;13.590;2022-07-25T01:47:33;4.47;;;2.28;;
71626;SDS011;59475;52.464;13.590;2022-07-25T01:49:58;4.67;;;2.70;;
71626;SDS011;59475;52.464;13.590;2022-07-25T01:52:23;3.00;;;2.53;;
71626;SDS011;59475;52.464;13.590;2022-07-25T01:54:49;4.20;;;2.43;;
71626;SDS011;59475;52.464;13.590;2022-07-25T01:57:14;2.43;;;2.23;;
71626;SDS011;59475;52.464;13.590;2022-07-25T01:59:39;3.80;;;2.30;;
71626;SDS011;59475;52.464;13.590;2022-07-25T02:02:06;3.00;;;2.30;;
71626;SDS011;59475;52.464;13.590;2022-07-25T02:04:32;3.88;;;2.90;;
71626;SDS011;59475;52.464;13.590;2022-07-25T02:06:58;2.70;;;2.40;;
71626;SDS011;59475;52.464;13.590;2022-07-25T02:09:24;3.30;;;2.80;;
71626;SDS011;59475;52.464;13.590;2022-07-25T02:11:49;2.33;;;2.13;;
71626;SDS011;59475;52.464;13.590;2022-07-25T02:14:15;2.57;;;2.10;;
71626;SDS011;59475;52.464;13.590;2022-07-25T02:16:40;2.40;;;2.10;;
71626;SDS011;59475;52.464;13.590;2022-07-25T02:19:06;3.60;;;2.40;;
71626;SDS011;59475;52.464;13.590;2022-07-25T02:21:31;3.40;;;2.33;;
71626;SDS011;59475;52.464;13.590;2022-07-25T02:23:57;3.33;;;2.27;;
71626;SDS011;59475;52.464;13.590;2022-07-25T02:26:22;2.38;;;2.13;;
71626;SDS011;59475;52.464;13.590;2022-07-25T02:28:48;2.90;;;2.37;;
71626;SDS011;59475;52.464;13.590;2022-07-25T02:31:13;2.75;;;2.53;;
71626;SDS011;59475;52.464;13.590;2022-07-25T02:33:39;2.97;;;2.67;;
71626;SDS011;59475;52.464;13.590;2022-07-25T02:36:04;2.40;;;2.20;;
71626;SDS011;59475;52.464;13.590;2022-07-25T02:38:30;3.08;;;2.30;;
71626;SDS011;59475;52.464;13.590;2022-07-25T02:40:55;4.23;;;2.27;;
71626;SDS011;59475;52.464;13.590;2022-07-25T02:43:21;2.53;;;2.27;;
71626;SDS011;59475;52.464;13.590;2022-07-25T02:45:46;3.10;;;2.50;;
71626;SDS011;59475;52.464;13.590;2022-07-25T02:48:11;4.27;;;2.20;;
71626;SDS011;59475;52.464;13.590;2022-07-25T02:50:37;2.75;;;2.47;;
71626;SDS011;59475;52.464;13.590;2022-07-25T02:53:03;5.03;;;2.53;;
71626;SDS011;59475;52.464;13.590;2022-07-25T02:55:30;2.87;;;2.37;;
71626;SDS011;59475;52.464;13.590;2022-07-25T02:57:55;5.93;;;2.28;;
71626;SDS011;59475;52.464;13.590;2022-07-25T03:00:21;2.83;;;2.43;;
71626;SDS011;59475;52.464;13.590;2022-07-25T03:02:47;3.43;;;2.80;;
71626;SDS011;59475;52.464;13.590;2022-07-25T03:05:13;2.37;;;1.90;;
71626;SDS011;59475;52.464;13.590;2022-07-25T03:07:40;2.80;;;2.45;;
71626;SDS011;59475;52.464;13.590;2022-07-25T03:10:07;2.50;;;2.30;;
71626;SDS011;59475;52.464;13.590;2022-07-25T03:12:33;4.00;;;2.35;;
71626;SDS011;59475;52.464;13.590;2022-07-25T03:14:59;2.53;;;2.27;;
71626;SDS011;59475;52.464;13.590;2022-07-25T03:17:26;2.92;;;2.63;;
71626;SDS011;59475;52.464;13.590;2022-07-25T03:19:52;2.63;;;2.20;;
71626;SDS011;59475;52.464;13.590;2022-07-25T03:22:18;3.22;;;2.42;;
71626;SDS011;59475;52.464;13.590;2022-07-25T03:24:43;4.03;;;2.50;;
71626;SDS011;59475;52.464;13.590;2022-07-25T03:27:09;3.40;;;2.07;;
71626;SDS011;59475;52.464;13.590;2022-07-25T03:29:34;3.25;;;2.30;;
71626;SDS011;59475;52.464;13.590;2022-07-25T03:32:00;2.93;;;2.33;;
71626;SDS011;59475;52.464;13.590;2022-07-25T03:34:25;2.83;;;2.43;;
71626;SDS011;59475;52.464;13.590;2022-07-25T03:36:50;2.80;;;2.30;;
71626;SDS011;59475;52.464;13.590;2022-07-25T03:39:16;5.10;;;2.47;;
71626;SDS011;59475;52.464;13.590;2022-07-25T03:41:42;2.55;;;2.35;;
71626;SDS011;59475;52.464;13.590;2022-07-25T03:44:07;2.83;;;2.23;;
71626;SDS011;59475;52.464;13.590;2022-07-25T03:46:32;4.37;;;2.63;;
71626;SDS011;59475;52.464;13.590;2022-07-25T03:48:58;2.42;;;2.15;;
71626;SDS011;59475;52.464;13.590;2022-07-25T03:51:23;2.63;;;2.03;;
71626;SDS011;59475;52.464;13.590;2022-07-25T03:53:48;5.27;;;2.80;;
71626;SDS011;59475;52.464;13.590;2022-07-25T03:56:26;2.50;;;2.05;;
71626;SDS011;59475;52.464;13.590;2022-07-25T03:59:05;4.17;;;2.40;;
71626;SDS011;59475;52.464;13.590;2022-07-25T04:01:32;3.05;;;2.20;;
71626;SDS011;59475;52.464;13.590;2022-07-25T04:03:59;2.78;;;2.35;;
71626;SDS011;59475;52.464;13.590;2022-07-25T04:06:24;5.43;;;2.20;;
71626;SDS011;59475;52.464;13.590;2022-07-25T04:08:50;2.83;;;2.25;;
71626;SDS011;59475;52.464;13.590;2022-07-25T04:11:15;2.83;;;2.40;;
71626;SDS011;59475;52.464;13.590;2022-07-25T04:13:41;3.47;;;2.70;;
71626;SDS011;59475;52.464;13.590;2022-07-25T04:16:06;2.57;;;2.20;;
71626;SDS011;59475;52.464;13.590;2022-07-25T04:18:32;2.22;;;1.95;;
71626;SDS011;59475;52.464;13.590;2022-07-25T04:20:58;3.07;;;2.03;;
71626;SDS011;59475;52.464;13.590;2022-07-25T04:23:23;3.30;;;2.33;;
71626;SDS011;59475;52.464;13.590;2022-07-25T04:25:48;3.13;;;2.40;;
71626;SDS011;59475;52.464;13.590;2022-07-25T04:28:14;3.80;;;2.27;;
71626;SDS011;59475;52.464;13.590;2022-07-25T04:30:39;2.77;;;2.20;;
71626;SDS011;59475;52.464;13.590;2022-07-25T04:33:05;4.27;;;2.50;;
71626;SDS011;59475;52.464;13.590;2022-07-25T04:35:30;2.97;;;2.03;;
71626;SDS011;59475;52.464;13.590;2022-07-25T04:37:55;3.22;;;2.20;;
71626;SDS011;59475;52.464;13.590;2022-07-25T04:40:21;4.20;;;2.07;;
71626;SDS011;59475;52.464;13.590;2022-07-25T04:42:46;3.50;;;2.43;;
71626;SDS011;59475;52.464;13.590;2022-07-25T04:45:11;4.07;;;2.10;;
71626;SDS011;59475;52.464;13.590;2022-07-25T04:47:37;2.53;;;2.30;;
71626;SDS011;59475;52.464;13.590;2022-07-25T04:50:02;2.83;;;2.50;;
71626;SDS011;59475;52.464;13.590;2022-07-25T04:52:28;2.60;;;1.90;;
71626;SDS011;59475;52.464;13.590;2022-07-25T04:54:53;3.43;;;2.20;;
71626;SDS011;59475;52.464;13.590;2022-07-25T04:57:18;2.50;;;2.30;;
71626;SDS011;59475;52.464;13.590;2022-07-25T04:59:44;2.97;;;2.40;;
71626;SDS011;59475;52.464;13.590;2022-07-25T05:02:09;2.43;;;2.23;;
71626;SDS011;59475;52.464;13.590;2022-07-25T05:04:35;2.50;;;2.00;;
71626;SDS011;59475;52.464;13.590;2022-07-25T05:07:00;2.40;;;2.20;;
71626;SDS011;59475;52.464;13.590;2022-07-25T05:09:26;3.85;;;2.13;;
71626;SDS011;59475;52.464;13.590;2022-07-25T05:11:52;2.30;;;2.10;;
71626;SDS011;59475;52.464;13.590;2022-07-25T05:14:17;2.83;;;2.17;;
71626;SDS011;59475;52.464;13.590;2022-07-25T05:16:43;2.43;;;2.20;;
71626;SDS011;59475;52.464;13.590;2022-07-25T05:19:08;2.30;;;2.03;;
71626;SDS011;59475;52.464;13.590;2022-07-25T05:21:33;3.67;;;2.33;;
71626;SDS011;59475;52.464;13.590;2022-07-25T05:23:59;3.03;;;2.10;;
71626;SDS011;59475;52.464;13.590;2022-07-25T05:26:24;2.30;;;2.10;;
71626;SDS011;59475;52.464;13.590;2022-07-25T05:28:49;3.07;;;2.20;;
71626;SDS011;59475;52.464;13.590;2022-07-25T05:31:14;3.27;;;2.30;;
71626;SDS011;59475;52.464;13.590;2022-07-25T05:33:40;2.63;;;2.23;;
71626;SDS011;59475;52.464;13.590;2022-07-25T05:36:06;3.47;;;2.10;;
71626;SDS011;59475;52.464;13.590;2022-07-25T05:38:32;3.63;;;2.20;;
71626;SDS011;59475;52.464;13.590;2022-07-25T05:40:58;4.87;;;2.20;;
71626;SDS011;59475;52.464;13.590;2022-07-25T05:43:23;2.40;;;2.20;;
71626;SDS011;59475;52.464;13.590;2022-07-25T05:45:49;2.57;;;2.17;;
71626;SDS011;59475;52.464;13.590;2022-07-25T05:48:14;5.10;;;2.50;;
71626;SDS011;59475;52.464;13.590;2022-07-25T05:50:39;2.67;;;2.23;;
71626;SDS011;59475;52.464;13.590;2022-07-25T05:53:05;4.33;;;2.17;;
71626;SDS011;59475;52.464;13.590;2022-07-25T05:55:31;3.90;;;2.35;;
71626;SDS011;59475;52.464;13.590;2022-07-25T05:57:56;3.73;;;2.33;;
71626;SDS011;59475;52.464;13.590;2022-07-25T06:00:21;4.03;;;2.75;;
71626;SDS011;59475;52.464;13.590;2022-07-25T06:02:47;3.70;;;2.40;;
71626;SDS011;59475;52.464;13.590;2022-07-25T06:05:12;3.50;;;2.43;;
71626;SDS011;59475;52.464;13.590;2022-07-25T06:07:37;4.47;;;2.70;;
71626;SDS011;59475;52.464;13.590;2022-07-25T06:10:03;3.35;;;2.42;;
71626;SDS011;59475;52.464;13.590;2022-07-25T06:12:29;2.90;;;2.03;;
71626;SDS011;59475;52.464;13.590;2022-07-25T06:14:57;3.75;;;2.55;;
71626;SDS011;59475;52.464;13.590;2022-07-25T06:17:22;3.67;;;2.70;;
71626;SDS011;59475;52.464;13.590;2022-07-25T06:19:48;3.08;;;2.30;;
71626;SDS011;59475;52.464;13.590;2022-07-25T06:22:13;3.27;;;2.30;;
71626;SDS011;59475;52.464;13.590;2022-07-25T06:24:38;3.57;;;2.60;;
71626;SDS011;59475;52.464;13.590;2022-07-25T06:27:03;2.67;;;2.47;;
71626;SDS011;59475;52.464;13.590;2022-07-25T06:29:30;2.60;;;2.38;;
71626;SDS011;59475;52.464;13.590;2022-07-25T06:31:56;3.57;;;2.40;;
71626;SDS011;59475;52.464;13.590;2022-07-25T06:34:21;4.23;;;2.53;;
71626;SDS011;59475;52.464;13.590;2022-07-25T06:36:46;4.00;;;2.40;;
71626;SDS011;59475;52.464;13.590;2022-07-25T06:39:12;2.40;;;2.20;;
71626;SDS011;59475;52.464;13.590;2022-07-25T06:41:37;3.67;;;2.53;;
71626;SDS011;59475;52.464;13.590;2022-07-25T06:44:03;2.95;;;2.60;;
71626;SDS011;59475;52.464;13.590;2022-07-25T06:46:28;3.77;;;2.27;;
71626;SDS011;59475;52.464;13.590;2022-07-25T06:48:56;3.05;;;2.20;;
71626;SDS011;59475;52.464;13.590;2022-07-25T06:51:22;2.67;;;2.43;;
71626;SDS011;59475;52.464;13.590;2022-07-25T06:53:48;3.63;;;2.50;;
71626;SDS011;59475;52.464;13.590;2022-07-25T06:56:13;3.50;;;2.40;;
71626;SDS011;59475;52.464;13.590;2022-07-25T06:58:39;5.90;;;2.70;;
71626;SDS011;59475;52.464;13.590;2022-07-25T07:01:04;4.13;;;2.57;;
71626;SDS011;59475;52.464;13.590;2022-07-25T07:03:30;3.58;;;2.50;;
71626;SDS011;59475;52.464;13.590;2022-07-25T07:05:58;3.63;;;2.80;;
71626;SDS011;59475;52.464;13.590;2022-07-25T07:08:25;2.50;;;2.20;;
71626;SDS011;59475;52.464;13.590;2022-07-25T07:10:50;3.50;;;2.78;;
71626;SDS011;59475;52.464;13.590;2022-07-25T07:13:15;3.60;;;2.43;;
71626;SDS011;59475;52.464;13.590;2022-07-25T07:15:43;3.78;;;2.55;;
71626;SDS011;59475;52.464;13.590;2022-07-25T07:18:15;3.78;;;2.92;;
71626;SDS011;59475;52.464;13.590;2022-07-25T07:20:42;3.70;;;3.10;;
71626;SDS011;59475;52.464;13.590;2022-07-25T07:23:07;4.50;;;2.60;;
71626;SDS011;59475;52.464;13.590;2022-07-25T07:25:33;3.83;;;2.50;;
71626;SDS011;59475;52.464;13.590;2022-07-25T07:27:58;2.83;;;2.50;;
71626;SDS011;59475;52.464;13.590;2022-07-25T07:30:24;7.03;;;2.78;;
71626;SDS011;59475;52.464;13.590;2022-07-25T07:32:49;4.37;;;2.40;;
71626;SDS011;59475;52.464;13.590;2022-07-25T07:35:15;3.50;;;2.57;;
71626;SDS011;59475;52.464;13.590;2022-07-25T07:37:42;3.70;;;2.65;;
71626;SDS011;59475;52.464;13.590;2022-07-25T07:40:08;3.85;;;2.97;;
71626;SDS011;59475;52.464;13.590;2022-07-25T07:42:38;4.35;;;2.83;;
71626;SDS011;59475;52.464;13.590;2022-07-25T07:45:09;3.57;;;2.70;;
71626;SDS011;59475;52.464;13.590;2022-07-25T07:47:39;3.85;;;2.40;;
71626;SDS011;59475;52.464;13.590;2022-07-25T07:50:04;3.00;;;2.70;;
71626;SDS011;59475;52.464;13.590;2022-07-25T07:52:30;2.92;;;2.53;;
71626;SDS011;59475;52.464;13.590;2022-07-25T07:54:56;4.73;;;2.60;;
71626;SDS011;59475;52.464;13.590;2022-07-25T07:57:39;5.53;;;2.63;;
71626;SDS011;59475;52.464;13.590;2022-07-25T08:00:05;2.97;;;2.53;;
71626;SDS011;59475;52.464;13.590;2022-07-25T08:02:31;4.25;;;2.78;;
71626;SDS011;59475;52.464;13.590;2022-07-25T08:04:56;3.00;;;2.70;;
71626;SDS011;59475;52.464;13.590;2022-07-25T08:07:22;3.57;;;3.10;;
71626;SDS011;59475;52.464;13.590;2022-07-25T08:09:47;6.00;;;3.63;;
71626;SDS011;59475;52.464;13.590;2022-07-25T08:12:13;5.77;;;3.43;;
71626;SDS011;59475;52.464;13.590;2022-07-25T08:14:39;4.60;;;3.42;;
71626;SDS011;59475;52.464;13.590;2022-07-25T08:17:04;4.07;;;3.00;;
71626;SDS011;59475;52.464;13.590;2022-07-25T08:19:30;4.13;;;3.17;;
71626;SDS011;59475;52.464;13.590;2022-07-25T08:21:55;3.75;;;3.15;;
71626;SDS011;59475;52.464;13.590;2022-07-25T08:24:20;4.23;;;3.03;;
71626;SDS011;59475;52.464;13.590;2022-07-25T08:26:46;4.00;;;3.37;;
71626;SDS011;59475;52.464;13.590;2022-07-25T08:29:11;4.90;;;3.73;;
71626;SDS011;59475;52.464;13.590;2022-07-25T08:31:36;3.43;;;3.10;;
71626;SDS011;59475;52.464;13.590;2022-07-25T08:34:02;3.65;;;3.30;;
71626;SDS011;59475;52.464;13.590;2022-07-25T08:36:27;6.63;;;3.53;;
71626;SDS011;59475;52.464;13.590;2022-07-25T08:38:53;3.50;;;3.20;;
71626;SDS011;59475;52.464;13.590;2022-07-25T08:41:18;4.97;;;3.67;;
71626;SDS011;59475;52.464;13.590;2022-07-25T08:43:44;4.87;;;3.90;;
71626;SDS011;59475;52.464;13.590;2022-07-25T08:46:13;4.80;;;3.60;;
71626;SDS011;59475;52.464;13.590;2022-07-25T08:48:40;3.75;;;3.45;;
71626;SDS011;59475;52.464;13.590;2022-07-25T08:51:06;4.85;;;4.00;;
71626;SDS011;59475;52.464;13.590;2022-07-25T08:53:32;3.97;;;3.58;;
71626;SDS011;59475;52.464;13.590;2022-07-25T08:55:57;4.47;;;3.83;;
71626;SDS011;59475;52.464;13.590;2022-07-25T08:58:23;4.10;;;3.70;;
71626;SDS011;59475;52.464;13.590;2022-07-25T09:00:48;5.30;;;4.10;;
71626;SDS011;59475;52.464;13.590;2022-07-25T09:03:13;4.83;;;3.70;;
71626;SDS011;59475;52.464;13.590;2022-07-25T09:05:39;5.37;;;4.00;;
71626;SDS011;59475;52.464;13.590;2022-07-25T09:08:06;5.10;;;3.90;;
71626;SDS011;59475;52.464;13.590;2022-07-25T09:10:34;5.35;;;3.80;;
71626;SDS011;59475;52.464;13.590;2022-07-25T09:13:02;4.40;;;3.75;;
71626;SDS011;59475;52.464;13.590;2022-07-25T09:15:35;4.68;;;4.28;;
71626;SDS011;59475;52.464;13.590;2022-07-25T09:18:03;5.65;;;4.28;;
71626;SDS011;59475;52.464;13.590;2022-07-25T09:20:38;4.37;;;3.90;;
71626;SDS011;59475;52.464;13.590;2022-07-25T09:23:11;7.93;;;3.90;;
71626;SDS011;59475;52.464;13.590;2022-07-25T09:25:38;4.72;;;4.00;;
71626;SDS011;59475;52.464;13.590;2022-07-25T09:28:13;6.23;;;4.47;;
71626;SDS011;59475;52.464;13.590;2022-07-25T09:30:51;5.55;;;4.03;;
71626;SDS011;59475;52.464;13.590;2022-07-25T09:33:24;5.80;;;4.15;;
71626;SDS011;59475;52.464;13.590;2022-07-25T09:35:51;6.15;;;4.53;;
71626;SDS011;59475;52.464;13.590;2022-07-25T09:38:17;4.85;;;4.07;;
71626;SDS011;59475;52.464;13.590;2022-07-25T09:40:57;5.30;;;4.13;;
71626;SDS011;59475;52.464;13.590;2022-07-25T09:43:35;5.35;;;4.63;;
71626;SDS011;59475;52.464;13.590;2022-07-25T09:46:01;6.00;;;4.93;;
71626;SDS011;59475;52.464;13.590;2022-07-25T09:48:26;6.70;;;5.00;;
71626;SDS011;59475;52.464;13.590;2022-07-25T09:50:52;4.13;;;3.73;;
71626;SDS011;59475;52.464;13.590;2022-07-25T09:53:18;5.10;;;4.60;;
71626;SDS011;59475;52.464;13.590;2022-07-25T09:55:44;5.47;;;4.85;;
71626;SDS011;59475;52.464;13.590;2022-07-25T09:58:09;5.70;;;5.10;;
71626;SDS011;59475;52.464;13.590;2022-07-25T10:00:36;8.45;;;4.88;;
71626;SDS011;59475;52.464;13.590;2022-07-25T10:06:01;7.25;;;5.07;;
71626;SDS011;59475;52.464;13.590;2022-07-25T10:08:34;7.20;;;4.88;;
71626;SDS011;59475;52.464;13.590;2022-07-25T10:11:03;6.03;;;5.00;;
71626;SDS011;59475;52.464;13.590;2022-07-25T10:13:33;5.43;;;4.93;;
71626;SDS011;59475;52.464;13.590;2022-07-25T10:16:01;6.13;;;5.30;;
71626;SDS011;59475;52.464;13.590;2022-07-25T10:18:27;7.50;;;5.20;;
71626;SDS011;59475;52.464;13.590;2022-07-25T10:21:03;6.22;;;5.00;;
71626;SDS011;59475;52.464;13.590;2022-07-25T10:23:34;5.80;;;4.63;;
71626;SDS011;59475;52.464;13.590;2022-07-25T10:26:00;6.60;;;5.33;;
71626;SDS011;59475;52.464;13.590;2022-07-25T10:28:34;5.82;;;5.20;;
71626;SDS011;59475;52.464;13.590;2022-07-25T10:31:00;6.78;;;5.45;;
71626;SDS011;59475;52.464;13.590;2022-07-25T10:33:25;6.33;;;5.30;;
71626;SDS011;59475;52.464;13.590;2022-07-25T10:35:51;5.97;;;5.13;;
71626;SDS011;59475;52.464;13.590;2022-07-25T10:38:22;6.60;;;4.97;;
71626;SDS011;59475;52.464;13.590;2022-07-25T10:40:48;6.97;;;5.32;;
71626;SDS011;59475;52.464;13.590;2022-07-25T10:43:17;6.17;;;5.00;;
71626;SDS011;59475;52.464;13.590;2022-07-25T10:45:49;8.38;;;5.53;;
71626;SDS011;59475;52.464;13.590;2022-07-25T10:48:21;7.75;;;5.28;;
71626;SDS011;59475;52.464;13.590;2022-07-25T10:50:52;6.30;;;5.70;;
71626;SDS011;59475;52.464;13.590;2022-07-25T10:53:30;6.00;;;5.40;;
71626;SDS011;59475;52.464;13.590;2022-07-25T10:56:08;7.32;;;5.80;;
71626;SDS011;59475;52.464;13.590;2022-07-25T11:03:52;7.33;;;6.50;;
71626;SDS011;59475;52.464;13.590;2022-07-25T11:06:41;6.82;;;5.93;;
71626;SDS011;59475;52.464;13.590;2022-07-25T11:09:26;6.30;;;5.03;;
71626;SDS011;59475;52.464;13.590;2022-07-25T11:11:53;7.72;;;5.45;;
71626;SDS011;59475;52.464;13.590;2022-07-25T11:14:39;6.93;;;5.60;;
71626;SDS011;59475;52.464;13.590;2022-07-25T11:19:44;6.05;;;5.45;;
71626;SDS011;59475;52.464;13.590;2022-07-25T11:22:17;6.45;;;5.80;;
71626;SDS011;59475;52.464;13.590;2022-07-25T11:24:44;6.87;;;5.77;;
71626;SDS011;59475;52.464;13.590;2022-07-25T11:27:11;7.35;;;5.47;;
71626;SDS011;59475;52.464;13.590;2022-07-25T11:29:44;7.25;;;6.10;;
71626;SDS011;59475;52.464;13.590;2022-07-25T11:32:10;5.70;;;5.10;;
71626;SDS011;59475;52.464;13.590;2022-07-25T11:34:37;6.47;;;5.68;;
71626;SDS011;59475;52.464;13.590;2022-07-25T11:37:06;7.27;;;5.57;;
71626;SDS011;59475;52.464;13.590;2022-07-25T11:39:33;6.63;;;5.63;;
71626;SDS011;59475;52.464;13.590;2022-07-25T11:42:04;6.65;;;5.60;;
71626;SDS011;59475;52.464;13.590;2022-07-25T11:44:48;7.35;;;5.55;;
71626;SDS011;59475;52.464;13.590;2022-07-25T11:49:58;9.33;;;5.80;;
71626;SDS011;59475;52.464;13.590;2022-07-25T11:52:30;8.13;;;6.05;;
71626;SDS011;59475;52.464;13.590;2022-07-25T11:54:58;6.35;;;5.68;;
71626;SDS011;59475;52.464;13.590;2022-07-25T11:57:26;6.30;;;5.70;;
71626;SDS011;59475;52.464;13.590;2022-07-25T11:59:53;6.95;;;5.80;;
71626;SDS011;59475;52.464;13.590;2022-07-25T12:02:20;7.13;;;5.60;;
71626;SDS011;59475;52.464;13.590;2022-07-25T12:04:57;7.30;;;5.63;;
71626;SDS011;59475;52.464;13.590;2022-07-25T12:10:20;7.47;;;5.85;;
71626;SDS011;59475;52.464;13.590;2022-07-25T12:12:56;6.07;;;5.50;;
71626;SDS011;59475;52.464;13.590;2022-07-25T12:15:55;7.03;;;5.60;;
71626;SDS011;59475;52.464;13.590;2022-07-25T12:18:13;6.72;;;5.03;;
71626;SDS011;59475;52.464;13.590;2022-07-25T12:20:39;5.60;;;5.00;;
71626;SDS011;59475;52.464;13.590;2022-07-25T12:23:07;6.10;;;5.50;;
71626;SDS011;59475;52.464;13.590;2022-07-25T12:25:35;6.38;;;5.03;;
71626;SDS011;59475;52.464;13.590;2022-07-25T12:28:02;5.43;;;3.63;;
71626;SDS011;59475;52.464;13.590;2022-07-25T12:30:28;7.33;;;5.07;;
71626;SDS011;59475;52.464;13.590;2022-07-25T12:32:54;6.10;;;5.50;;
71626;SDS011;59475;52.464;13.590;2022-07-25T12:35:21;8.90;;;5.35;;
71626;SDS011;59475;52.464;13.590;2022-07-25T12:37:46;7.13;;;5.67;;
71626;SDS011;59475;52.464;13.590;2022-07-25T12:40:12;6.68;;;5.30;;
71626;SDS011;59475;52.464;13.590;2022-07-25T12:42:38;6.30;;;5.17;;
71626;SDS011;59475;52.464;13.590;2022-07-25T12:45:04;5.87;;;5.37;;
71626;SDS011;59475;52.464;13.590;2022-07-25T12:47:32;7.13;;;5.60;;
71626;SDS011;59475;52.464;13.590;2022-07-25T12:49:57;8.35;;;5.28;;
71626;SDS011;59475;52.464;13.590;2022-07-25T12:52:23;7.10;;;5.47;;
71626;SDS011;59475;52.464;13.590;2022-07-25T12:54:48;6.83;;;5.40;;
71626;SDS011;59475;52.464;13.590;2022-07-25T12:57:14;6.50;;;5.70;;
71626;SDS011;59475;52.464;13.590;2022-07-25T12:59:39;7.97;;;5.90;;
71626;SDS011;59475;52.464;13.590;2022-07-25T13:02:05;6.05;;;5.45;;
71626;SDS011;59475;52.464;13.590;2022-07-25T13:04:31;6.60;;;5.20;;
71626;SDS011;59475;52.464;13.590;2022-07-25T13:06:57;5.07;;;4.57;;
71626;SDS011;59475;52.464;13.590;2022-07-25T13:09:23;5.18;;;4.00;;
71626;SDS011;59475;52.464;13.590;2022-07-25T13:11:49;6.30;;;5.38;;
71626;SDS011;59475;52.464;13.590;2022-07-25T13:14:15;6.20;;;5.50;;
71626;SDS011;59475;52.464;13.590;2022-07-25T13:16:44;8.18;;;5.32;;
71626;SDS011;59475;52.464;13.590;2022-07-25T13:19:10;8.07;;;5.20;;
71626;SDS011;59475;52.464;13.590;2022-07-25T13:21:36;8.87;;;5.03;;
71626;SDS011;59475;52.464;13.590;2022-07-25T13:24:01;5.63;;;4.80;;
71626;SDS011;59475;52.464;13.590;2022-07-25T13:26:27;5.90;;;5.00;;
71626;SDS011;59475;52.464;13.590;2022-07-25T13:28:52;6.07;;;5.30;;
71626;SDS011;59475;52.464;13.590;2022-07-25T13:31:18;7.53;;;5.30;;
71626;SDS011;59475;52.464;13.590;2022-07-25T13:33:44;4.93;;;4.43;;
71626;SDS011;59475;52.464;13.590;2022-07-25T13:36:10;7.97;;;5.22;;
71626;SDS011;59475;52.464;13.590;2022-07-25T13:38:36;5.70;;;5.10;;
71626;SDS011;59475;52.464;13.590;2022-07-25T13:41:05;6.68;;;5.57;;
71626;SDS011;59475;52.464;13.590;2022-07-25T13:43:31;5.93;;;5.33;;
71626;SDS011;59475;52.464;13.590;2022-07-25T13:45:56;6.43;;;5.03;;
71626;SDS011;59475;52.464;13.590;2022-07-25T13:48:21;7.75;;;5.75;;
71626;SDS011;59475;52.464;13.590;2022-07-25T13:50:47;7.67;;;5.20;;
71626;SDS011;59475;52.464;13.590;2022-07-25T13:53:12;5.47;;;4.93;;
71626;SDS011;59475;52.464;13.590;2022-07-25T13:55:37;7.73;;;5.57;;
71626;SDS011;59475;52.464;13.590;2022-07-25T13:58:03;9.10;;;5.53;;
71626;SDS011;59475;52.464;13.590;2022-07-25T14:00:28;7.22;;;4.90;;
71626;SDS011;59475;52.464;13.590;2022-07-25T14:02:54;6.03;;;5.27;;
71626;SDS011;59475;52.464;13.590;2022-07-25T14:05:19;5.90;;;5.30;;
71626;SDS011;59475;52.464;13.590;2022-07-25T14:07:44;6.00;;;4.90;;
71626;SDS011;59475;52.464;13.590;2022-07-25T14:10:10;9.65;;;5.75;;
71626;SDS011;59475;52.464;13.590;2022-07-25T14:12:36;6.37;;;5.70;;
71626;SDS011;59475;52.464;13.590;2022-07-25T14:15:03;7.38;;;5.25;;
71626;SDS011;59475;52.464;13.590;2022-07-25T14:17:30;5.90;;;5.30;;
71626;SDS011;59475;52.464;13.590;2022-07-25T14:19:56;5.63;;;4.93;;
71626;SDS011;59475;52.464;13.590;2022-07-25T14:22:21;9.27;;;5.33;;
71626;SDS011;59475;52.464;13.590;2022-07-25T14:24:47;6.03;;;5.20;;
71626;SDS011;59475;52.464;13.590;2022-07-25T14:27:12;7.40;;;5.53;;
71626;SDS011;59475;52.464;13.590;2022-07-25T14:29:37;6.27;;;5.37;;
71626;SDS011;59475;52.464;13.590;2022-07-25T14:32:03;7.55;;;5.65;;
71626;SDS011;59475;52.464;13.590;2022-07-25T14:34:30;6.93;;;5.57;;
71626;SDS011;59475;52.464;13.590;2022-07-25T14:36:55;5.53;;;5.03;;
71626;SDS011;59475;52.464;13.590;2022-07-25T14:39:21;6.03;;;5.03;;
71626;SDS011;59475;52.464;13.590;2022-07-25T14:41:46;5.80;;;5.20;;
71626;SDS011;59475;52.464;13.590;2022-07-25T14:44:11;5.90;;;5.30;;
71626;SDS011;59475;52.464;13.590;2022-07-25T14:46:37;5.73;;;5.23;;